createdAt,value
2022-10-13T00:01:33.484Z,64.70
2022-10-13T00:04:00.997Z,64.70
2022-10-13T00:06:28.514Z,64.70
2022-10-13T00:08:56.102Z,64.60
2022-10-13T00:11:26.337Z,64.60
2022-10-13T00:13:56.183Z,65.40
2022-10-13T00:16:23.643Z,64.60
2022-10-13T00:18:51.479Z,64.60
2022-10-13T00:21:21.048Z,64.50
2022-10-13T00:23:48.542Z,64.60
2022-10-13T00:26:17.030Z,64.50
2022-10-13T00:28:51.254Z,64.50
2022-10-13T00:31:20.795Z,64.50
2022-10-13T00:33:48.476Z,64.50
2022-10-13T00:36:16.400Z,64.50
2022-10-13T00:38:43.923Z,64.50
2022-10-13T00:41:11.508Z,64.50
2022-10-13T00:43:52.692Z,64.40
2022-10-13T00:46:20.186Z,64.20
2022-10-13T00:48:47.725Z,64.30
2022-10-13T00:51:16.541Z,64.30
2022-10-13T00:53:44.117Z,64.20
2022-10-13T00:56:12.066Z,64.10
2022-10-13T00:58:39.529Z,64.20
2022-10-13T01:01:08.598Z,64.10
2022-10-13T01:03:36.219Z,64.00
2022-10-13T01:06:04.297Z,64.00
2022-10-13T01:08:31.826Z,64.00
2022-10-13T01:11:05.461Z,64.00
2022-10-13T01:13:37.295Z,63.90
2022-10-13T01:16:09.802Z,63.90
2022-10-13T01:18:40.802Z,64.00
2022-10-13T01:21:21.880Z,63.90
2022-10-13T01:24:09.666Z,63.70
2022-10-13T01:27:14.439Z,63.80
2022-10-13T01:30:04.680Z,63.70
2022-10-13T01:32:35.889Z,63.70
2022-10-13T01:35:07.942Z,64.00
2022-10-13T01:37:39.264Z,63.80
2022-10-13T01:40:10.507Z,63.90
2022-10-13T01:42:40.541Z,63.80
2022-10-13T01:45:10.200Z,63.80
2022-10-13T01:47:38.498Z,63.80
2022-10-13T01:50:07.317Z,63.80
2022-10-13T01:52:35.994Z,63.80
2022-10-13T01:55:06.730Z,63.70
2022-10-13T01:57:35.077Z,63.70
2022-10-13T02:00:05.600Z,63.70
2022-10-13T02:02:37.724Z,63.70
2022-10-13T02:05:11.189Z,63.70
2022-10-13T02:07:41.581Z,63.70
2022-10-13T02:10:13.926Z,63.70
2022-10-13T02:12:44.764Z,63.70
2022-10-13T02:15:14.073Z,63.70
2022-10-13T02:17:43.077Z,63.70
2022-10-13T02:20:11.219Z,63.60
2022-10-13T02:22:41.036Z,63.60
2022-10-13T02:25:08.849Z,63.60
2022-10-13T02:27:36.410Z,63.50
2022-10-13T02:30:04.204Z,63.60
2022-10-13T02:32:31.699Z,63.60
2022-10-13T02:35:00.706Z,63.50
2022-10-13T02:37:28.180Z,63.40
2022-10-13T02:39:55.702Z,63.40
2022-10-13T02:42:23.519Z,63.30
2022-10-13T02:44:51.266Z,63.30
2022-10-13T02:47:18.820Z,63.30
2022-10-13T02:49:46.420Z,63.20
2022-10-13T02:52:15.323Z,63.10
2022-10-13T02:54:42.834Z,63.10
2022-10-13T02:57:10.353Z,63.20
2022-10-13T02:59:37.863Z,63.10
2022-10-13T03:02:05.437Z,63.10
2022-10-13T03:04:33.134Z,63.10
2022-10-13T03:07:00.641Z,63.20
2022-10-13T03:09:29.605Z,63.10
2022-10-13T03:11:57.074Z,63.10
2022-10-13T03:14:24.601Z,63.10
2022-10-13T03:16:52.167Z,63.00
2022-10-13T03:19:19.775Z,63.00
2022-10-13T03:21:47.320Z,63.00
2022-10-13T03:24:14.925Z,63.00
2022-10-13T03:26:43.924Z,62.90
2022-10-13T03:29:13.679Z,62.80
2022-10-13T03:31:41.198Z,62.80
2022-10-13T03:34:08.659Z,62.80
2022-10-13T03:36:36.158Z,62.90
2022-10-13T03:39:03.808Z,62.80
2022-10-13T03:41:31.342Z,62.80
2022-10-13T03:44:00.331Z,62.80
2022-10-13T03:46:29.460Z,62.80
2022-10-13T03:48:56.955Z,62.70
2022-10-13T03:51:24.576Z,62.70
2022-10-13T03:53:52.529Z,62.70
2022-10-13T03:56:22.057Z,62.70
2022-10-13T03:58:49.558Z,62.80
2022-10-13T04:01:18.561Z,62.60
2022-10-13T04:03:46.104Z,62.50
2022-10-13T04:06:13.548Z,62.50
2022-10-13T04:08:41.108Z,62.50
2022-10-13T04:11:10.512Z,62.40
2022-10-13T04:13:37.986Z,62.30
2022-10-13T04:16:06.202Z,62.30
2022-10-13T04:18:35.192Z,62.30
2022-10-13T04:21:02.713Z,62.30
2022-10-13T04:23:30.220Z,63.10
2022-10-13T04:25:57.749Z,62.20
2022-10-13T04:28:25.252Z,62.20
2022-10-13T04:30:52.900Z,62.20
2022-10-13T04:33:20.485Z,62.30
2022-10-13T04:35:49.469Z,62.30
2022-10-13T04:38:17.073Z,62.20
2022-10-13T04:40:44.758Z,62.20
2022-10-13T04:43:12.301Z,62.20
2022-10-13T04:45:39.834Z,62.00
2022-10-13T04:48:07.429Z,62.10
2022-10-13T04:50:34.987Z,62.00
2022-10-13T04:53:03.983Z,62.00
2022-10-13T04:55:31.485Z,61.90
2022-10-13T04:57:59.094Z,61.90
2022-10-13T05:00:26.557Z,61.90
2022-10-13T05:02:54.125Z,61.90
2022-10-13T05:05:21.647Z,61.90
2022-10-13T05:07:49.183Z,61.80
2022-10-13T05:10:18.328Z,61.80
2022-10-13T05:12:45.853Z,61.80
2022-10-13T05:15:13.334Z,61.80
2022-10-13T05:17:40.851Z,61.80
2022-10-13T05:20:10.048Z,61.70
2022-10-13T05:22:37.625Z,61.70
2022-10-13T05:25:05.543Z,61.70
2022-10-13T05:27:34.595Z,61.60
2022-10-13T05:30:02.023Z,61.50
2022-10-13T05:32:29.466Z,61.50
2022-10-13T05:34:56.962Z,61.40
2022-10-13T05:37:24.533Z,61.40
2022-10-13T05:39:52.047Z,61.30
2022-10-13T05:42:19.757Z,61.30
2022-10-13T05:44:49.020Z,61.40
2022-10-13T05:47:16.483Z,61.40
2022-10-13T05:49:44.004Z,61.40
2022-10-13T05:52:11.494Z,61.40
2022-10-13T05:54:40.008Z,61.40
2022-10-13T05:57:11.493Z,61.40
2022-10-13T05:59:41.833Z,61.40
2022-10-13T06:02:11.738Z,61.40
2022-10-13T06:04:41.340Z,61.40
2022-10-13T06:07:09.042Z,61.20
2022-10-13T06:09:37.432Z,61.20
2022-10-13T06:12:05.438Z,61.30
2022-10-13T06:14:33.070Z,61.40
2022-10-13T06:17:00.597Z,61.20
2022-10-13T06:19:29.604Z,61.30
2022-10-13T06:22:01.211Z,62.00
2022-10-13T06:24:30.764Z,61.10
2022-10-13T06:26:58.321Z,61.00
2022-10-13T06:29:25.945Z,61.50
2022-10-13T06:31:53.482Z,61.30
2022-10-13T06:34:21.017Z,61.20
2022-10-13T06:36:49.998Z,61.20
2022-10-13T06:39:17.550Z,61.20
2022-10-13T06:41:45.024Z,61.20
2022-10-13T06:44:12.612Z,61.20
2022-10-13T06:46:40.179Z,61.20
2022-10-13T06:49:07.803Z,61.20
2022-10-13T06:51:35.377Z,61.20
2022-10-13T06:54:04.501Z,61.20
2022-10-13T06:56:32.054Z,61.20
2022-10-13T06:58:59.758Z,61.20
2022-10-13T07:01:27.334Z,61.30
2022-10-13T07:03:54.890Z,61.20
2022-10-13T07:06:22.534Z,61.20
2022-10-13T07:08:50.002Z,61.20
2022-10-13T07:11:19.121Z,61.30
2022-10-13T07:13:47.123Z,61.20
2022-10-13T07:16:15.492Z,61.30
2022-10-13T07:18:43.018Z,61.20
2022-10-13T07:21:10.652Z,61.30
2022-10-13T07:23:38.332Z,61.30
2022-10-13T07:26:08.329Z,61.40
2022-10-13T07:28:37.438Z,61.40
2022-10-13T07:31:08.729Z,61.50
2022-10-13T07:33:36.333Z,61.50
2022-10-13T07:36:04.121Z,61.60
2022-10-13T07:38:31.736Z,61.60
2022-10-13T07:41:01.001Z,61.60
2022-10-13T07:43:28.511Z,61.60
2022-10-13T07:45:58.308Z,61.60
2022-10-13T07:48:25.801Z,61.60
2022-10-13T07:50:53.444Z,61.70
2022-10-13T07:53:21.066Z,61.60
2022-10-13T07:55:48.565Z,61.70
2022-10-13T07:58:16.038Z,61.80
2022-10-13T08:00:43.618Z,61.90
2022-10-13T08:03:12.646Z,62.00
2022-10-13T08:05:40.268Z,62.00
2022-10-13T08:08:07.765Z,62.10
2022-10-13T08:10:35.408Z,62.20
2022-10-13T08:13:02.958Z,62.30
2022-10-13T08:15:30.678Z,62.40
2022-10-13T08:17:58.319Z,62.50
2022-10-13T08:20:36.204Z,62.50
2022-10-13T08:23:11.461Z,62.70
2022-10-13T08:25:39.036Z,62.70
2022-10-13T08:28:06.654Z,62.90
2022-10-13T08:30:34.459Z,62.90
2022-10-13T08:33:02.167Z,62.90
2022-10-13T08:35:34.785Z,63.00
2022-10-13T08:38:02.676Z,63.10
2022-10-13T08:40:30.180Z,63.10
2022-10-13T08:43:00.409Z,63.20
2022-10-13T08:45:40.966Z,63.30
2022-10-13T08:48:12.068Z,63.40
2022-10-13T08:50:42.678Z,63.50
2022-10-13T08:53:12.731Z,63.60
2022-10-13T08:55:41.580Z,63.60
2022-10-13T08:58:22.060Z,63.70
2022-10-13T09:00:51.188Z,63.70
2022-10-13T09:03:24.275Z,63.80
2022-10-13T09:05:59.890Z,63.80
2022-10-13T09:08:38.072Z,63.90
2022-10-13T09:11:05.747Z,63.90
2022-10-13T09:13:33.259Z,63.80
2022-10-13T09:16:00.754Z,63.90
2022-10-13T09:18:29.605Z,63.90
2022-10-13T09:21:14.934Z,63.90
2022-10-13T09:23:42.491Z,63.90
2022-10-13T09:26:16.237Z,64.00
2022-10-13T09:28:43.837Z,63.90
2022-10-13T09:31:15.728Z,63.90
2022-10-13T09:33:43.292Z,63.70
2022-10-13T09:36:14.218Z,63.60
2022-10-13T09:38:44.646Z,63.40
2022-10-13T09:41:17.536Z,63.40
2022-10-13T09:43:59.192Z,63.30
2022-10-13T09:46:28.274Z,63.20
2022-10-13T09:48:56.956Z,63.30
2022-10-13T09:51:33.601Z,63.20
2022-10-13T09:54:01.229Z,63.20
2022-10-13T09:56:32.183Z,63.30
2022-10-13T09:59:10.639Z,63.20
2022-10-13T10:01:40.299Z,63.20
2022-10-13T10:04:11.473Z,63.20
2022-10-13T10:06:40.543Z,63.20
2022-10-13T10:09:28.535Z,63.20
2022-10-13T10:11:56.115Z,63.10
2022-10-13T10:14:25.538Z,63.30
2022-10-13T10:16:56.735Z,63.20
2022-10-13T10:19:27.295Z,63.30
2022-10-13T10:21:58.304Z,63.30
2022-10-13T10:24:27.440Z,63.30
2022-10-13T10:26:56.469Z,63.30
2022-10-13T10:29:28.576Z,63.30
2022-10-13T10:32:05.305Z,63.30
2022-10-13T10:34:38.158Z,63.20
2022-10-13T10:37:22.831Z,63.30
2022-10-13T10:39:59.179Z,63.30
2022-10-13T10:42:42.900Z,63.50
2022-10-13T10:45:16.064Z,63.40
2022-10-13T10:47:45.136Z,63.50
2022-10-13T10:50:14.993Z,63.70
2022-10-13T10:52:49.380Z,63.60
2022-10-13T10:55:21.657Z,63.60
2022-10-13T10:57:53.517Z,63.60
2022-10-13T11:00:21.394Z,63.60
2022-10-13T11:02:52.276Z,63.60
2022-10-13T11:05:20.075Z,63.70
2022-10-13T11:07:58.918Z,63.90
2022-10-13T11:10:26.574Z,63.80
2022-10-13T11:13:26.911Z,63.90
2022-10-13T11:15:54.459Z,63.80
2022-10-13T11:18:56.508Z,64.10
2022-10-13T11:21:24.083Z,64.00
2022-10-13T11:23:53.124Z,64.20
2022-10-13T11:26:41.418Z,64.20
2022-10-13T11:29:37.939Z,64.00
2022-10-13T11:32:05.665Z,64.10
2022-10-13T11:34:33.180Z,64.20
2022-10-13T11:37:03.303Z,64.30
2022-10-13T11:40:03.914Z,64.20
2022-10-13T11:42:59.964Z,64.20
2022-10-13T11:45:45.790Z,64.40
2022-10-13T11:48:38.792Z,64.40
2022-10-13T11:51:16.470Z,64.50
2022-10-13T11:53:48.853Z,64.50
2022-10-13T11:56:22.589Z,64.60
2022-10-13T11:58:50.252Z,64.60
2022-10-13T12:01:17.850Z,64.60
2022-10-13T12:03:46.325Z,64.60
2022-10-13T12:06:29.890Z,64.50
2022-10-13T12:08:57.434Z,64.60
2022-10-13T12:11:28.739Z,64.70
2022-10-13T12:13:56.434Z,64.90
2022-10-13T12:16:24.017Z,64.90
2022-10-13T12:18:51.585Z,64.90
2022-10-13T12:21:20.221Z,64.80
2022-10-13T12:23:47.918Z,65.00
2022-10-13T12:26:16.964Z,65.10
2022-10-13T12:28:50.825Z,65.20
2022-10-13T12:31:19.157Z,65.20
2022-10-13T12:33:52.698Z,65.50
2022-10-13T12:36:21.882Z,65.50
2022-10-13T12:38:51.181Z,65.50
2022-10-13T12:41:20.323Z,65.40
2022-10-13T12:43:49.427Z,65.40
2022-10-13T12:46:38.099Z,65.40
2022-10-13T12:49:05.772Z,65.40
2022-10-13T12:51:33.361Z,65.50
2022-10-13T12:54:00.956Z,65.50
2022-10-13T12:56:29.780Z,65.50
2022-10-13T12:58:58.841Z,65.50
2022-10-13T13:01:29.644Z,65.50
2022-10-13T13:03:59.014Z,65.50
2022-10-13T13:06:32.631Z,65.50
2022-10-13T13:09:19.916Z,65.60
2022-10-13T13:11:47.611Z,65.50
2022-10-13T13:14:36.079Z,65.60
2022-10-13T13:17:06.776Z,65.50
2022-10-13T13:19:34.524Z,65.60
2022-10-13T13:22:02.895Z,65.60
2022-10-13T13:24:39.803Z,65.60
2022-10-13T13:27:15.141Z,65.70
2022-10-13T13:29:44.455Z,65.80
2022-10-13T13:32:13.176Z,65.70
2022-10-13T13:34:40.965Z,65.80
2022-10-13T13:37:12.778Z,65.80
2022-10-13T13:39:40.373Z,65.70
2022-10-13T13:42:13.144Z,65.80
2022-10-13T13:44:40.735Z,65.80
2022-10-13T13:47:20.297Z,65.80
2022-10-13T13:49:48.526Z,65.70
2022-10-13T13:52:16.507Z,65.80
2022-10-13T13:54:44.069Z,65.80
2022-10-13T13:57:11.852Z,65.70
2022-10-13T13:59:39.477Z,65.70
2022-10-13T14:02:07.613Z,65.70
2022-10-13T14:04:36.860Z,65.80
2022-10-13T14:07:04.380Z,65.70
2022-10-13T14:09:31.862Z,65.70
2022-10-13T14:11:59.504Z,65.70
2022-10-13T14:14:27.195Z,65.70
2022-10-13T14:16:54.703Z,66.50
2022-10-13T14:19:22.298Z,65.70
2022-10-13T14:21:51.218Z,65.70
2022-10-13T14:24:18.903Z,65.80
2022-10-13T14:26:46.558Z,65.80
2022-10-13T14:29:14.055Z,65.80
2022-10-13T14:31:41.756Z,65.80
2022-10-13T14:34:09.269Z,65.90
2022-10-13T14:36:36.842Z,65.80
2022-10-13T14:39:05.928Z,65.80
2022-10-13T14:41:33.654Z,66.60
2022-10-13T14:44:01.182Z,65.80
2022-10-13T14:46:28.817Z,65.80
2022-10-13T14:48:56.426Z,65.80
2022-10-13T14:51:24.064Z,65.80
2022-10-13T14:53:51.701Z,65.80
2022-10-13T14:56:22.114Z,65.90
2022-10-13T14:58:50.237Z,65.90
2022-10-13T15:01:17.840Z,65.90
2022-10-13T15:03:45.575Z,65.90
2022-10-13T15:06:14.335Z,66.00
2022-10-13T15:08:42.113Z,66.10
2022-10-13T15:11:09.779Z,66.20
2022-10-13T15:13:38.813Z,66.10
2022-10-13T15:16:08.197Z,66.30
2022-10-13T15:18:35.839Z,66.30
2022-10-13T15:21:03.441Z,66.30
2022-10-13T15:23:31.007Z,66.30
2022-10-13T15:25:59.335Z,66.30
2022-10-13T15:28:28.644Z,66.30
2022-10-13T15:30:57.700Z,66.40
2022-10-13T15:33:25.354Z,66.50
2022-10-13T15:35:53.036Z,66.40
2022-10-13T15:38:20.836Z,66.50
2022-10-13T15:40:48.484Z,66.50
2022-10-13T15:43:16.281Z,66.50
2022-10-13T15:45:43.779Z,66.50
2022-10-13T15:48:12.842Z,66.60
2022-10-13T15:50:40.353Z,66.50
2022-10-13T15:53:07.872Z,66.40
2022-10-13T15:55:35.560Z,66.50
2022-10-13T15:58:03.170Z,66.60
2022-10-13T16:00:30.888Z,66.50
2022-10-13T16:02:58.730Z,66.50
2022-10-13T16:05:27.850Z,66.40
2022-10-13T16:07:55.422Z,66.50
2022-10-13T16:10:22.976Z,66.50
2022-10-13T16:12:50.656Z,66.60
2022-10-13T16:15:18.316Z,66.60
2022-10-13T16:17:45.860Z,66.70
2022-10-13T16:20:13.571Z,66.80
2022-10-13T16:22:42.748Z,66.80
2022-10-13T16:25:10.517Z,66.80
2022-10-13T16:27:41.762Z,66.90
2022-10-13T16:30:12.044Z,66.90
2022-10-13T16:32:39.614Z,67.00
2022-10-13T16:35:08.015Z,67.30
2022-10-13T16:37:35.519Z,67.10
2022-10-13T16:40:05.107Z,67.10
2022-10-13T16:42:32.705Z,67.10
2022-10-13T16:45:00.319Z,67.10
2022-10-13T16:47:27.862Z,67.20
2022-10-13T16:49:55.415Z,67.20
2022-10-13T16:52:22.958Z,67.20
2022-10-13T16:54:50.567Z,67.20
2022-10-13T16:57:19.763Z,67.30
2022-10-13T16:59:47.661Z,67.30
2022-10-13T17:02:15.207Z,67.30
2022-10-13T17:04:42.863Z,67.40
2022-10-13T17:07:10.426Z,67.30
2022-10-13T17:09:37.913Z,67.40
2022-10-13T17:12:05.844Z,67.50
2022-10-13T17:14:34.933Z,67.50
2022-10-13T17:17:02.459Z,67.50
2022-10-13T17:19:30.041Z,67.50
2022-10-13T17:21:57.651Z,67.50
2022-10-13T17:24:25.162Z,67.60
2022-10-13T17:26:52.701Z,67.60
2022-10-13T17:29:20.250Z,67.70
2022-10-13T17:31:49.374Z,67.70
2022-10-13T17:34:16.885Z,67.60
2022-10-13T17:36:44.483Z,67.60
2022-10-13T17:39:12.049Z,67.50
2022-10-13T17:41:39.552Z,67.60
2022-10-13T17:44:07.134Z,67.40
2022-10-13T17:46:38.071Z,67.30
2022-10-13T17:49:09.956Z,67.90
2022-10-13T17:51:37.417Z,67.10
2022-10-13T17:54:05.097Z,67.20
2022-10-13T17:56:32.708Z,67.30
2022-10-13T17:59:00.377Z,67.40
2022-10-13T18:01:28.778Z,67.50
2022-10-13T18:03:57.149Z,67.30
2022-10-13T18:06:26.481Z,67.40
2022-10-13T18:08:54.012Z,67.30
2022-10-13T18:11:23.028Z,67.30
2022-10-13T18:13:50.722Z,67.30
2022-10-13T18:16:20.259Z,67.40
2022-10-13T18:18:47.934Z,67.30
2022-10-13T18:21:16.483Z,67.30
2022-10-13T18:23:45.503Z,67.40
2022-10-13T18:26:14.492Z,67.50
2022-10-13T18:28:42.208Z,67.50
2022-10-13T18:31:11.267Z,67.50
2022-10-13T18:33:38.908Z,67.50
2022-10-13T18:36:13.858Z,67.60
2022-10-13T18:38:41.356Z,67.50
2022-10-13T18:41:10.361Z,67.60
2022-10-13T18:43:37.996Z,67.50
2022-10-13T18:46:05.767Z,67.60
2022-10-13T18:48:33.333Z,67.60
2022-10-13T18:51:04.221Z,67.70
2022-10-13T18:53:31.809Z,67.70
2022-10-13T18:56:03.836Z,67.80
2022-10-13T18:58:33.136Z,67.80
2022-10-13T19:01:01.329Z,67.90
2022-10-13T19:03:29.014Z,67.80
2022-10-13T19:05:56.749Z,67.80
2022-10-13T19:08:24.227Z,67.90
2022-10-13T19:10:51.689Z,67.90
2022-10-13T19:13:19.325Z,67.90
2022-10-13T19:15:48.395Z,68.00
2022-10-13T19:18:15.850Z,68.00
2022-10-13T19:20:43.489Z,68.00
2022-10-13T19:23:14.573Z,68.00
2022-10-13T19:25:42.256Z,68.10
2022-10-13T19:28:10.075Z,68.20
2022-10-13T19:30:37.625Z,68.20
2022-10-13T19:33:06.738Z,68.40
2022-10-13T19:35:39.872Z,68.60
2022-10-13T19:38:07.444Z,68.70
2022-10-13T19:40:38.848Z,68.70
2022-10-13T19:43:09.243Z,68.70
2022-10-13T19:45:36.859Z,68.80
2022-10-13T19:48:05.916Z,68.80
2022-10-13T19:50:33.735Z,68.80
2022-10-13T19:53:01.297Z,68.80
2022-10-13T19:55:28.990Z,68.90
2022-10-13T19:57:56.528Z,68.90
2022-10-13T20:00:24.155Z,69.00
2022-10-13T20:02:51.705Z,69.00
2022-10-13T20:05:25.270Z,68.90
2022-10-13T20:07:52.803Z,68.90
2022-10-13T20:10:20.346Z,69.10
2022-10-13T20:12:47.901Z,69.30
2022-10-13T20:15:15.504Z,69.30
2022-10-13T20:17:43.212Z,69.30
2022-10-13T20:20:11.007Z,69.30
2022-10-13T20:22:40.030Z,69.40
2022-10-13T20:25:08.492Z,69.40
2022-10-13T20:27:35.990Z,69.50
2022-10-13T20:30:03.957Z,69.50
2022-10-13T20:32:31.513Z,69.50
2022-10-13T20:34:59.028Z,69.60
2022-10-13T20:37:26.581Z,69.70
2022-10-13T20:39:55.610Z,69.70
2022-10-13T20:42:23.181Z,69.80
2022-10-13T20:44:50.688Z,69.80
2022-10-13T20:47:18.432Z,69.90
2022-10-13T20:49:46.466Z,70.00
2022-10-13T20:52:14.021Z,70.00
2022-10-13T20:54:41.552Z,70.00
2022-10-13T20:57:10.644Z,70.20
2022-10-13T20:59:38.375Z,70.30
2022-10-13T21:02:05.930Z,70.40
2022-10-13T21:04:33.629Z,70.50
2022-10-13T21:07:01.088Z,70.70
2022-10-13T21:09:28.701Z,70.80
2022-10-13T21:11:56.231Z,70.90
2022-10-13T21:14:25.206Z,70.80
2022-10-13T21:16:52.847Z,70.90
2022-10-13T21:19:20.332Z,70.90
2022-10-13T21:21:47.927Z,71.00
2022-10-13T21:24:15.366Z,70.90
2022-10-13T21:26:42.916Z,70.90
2022-10-13T21:29:10.558Z,71.20
2022-10-13T21:31:39.496Z,71.10
2022-10-13T21:34:07.073Z,71.30
2022-10-13T21:36:34.658Z,71.30
2022-10-13T21:39:03.458Z,71.40
2022-10-13T21:41:31.016Z,71.60
2022-10-13T21:43:58.467Z,71.70
2022-10-13T21:46:27.059Z,71.70
2022-10-13T21:48:57.545Z,71.80
2022-10-13T21:51:25.836Z,71.90
2022-10-13T21:53:54.075Z,72.00
2022-10-13T21:56:21.723Z,72.00
2022-10-13T21:58:49.390Z,72.10
2022-10-13T22:01:17.314Z,72.20
2022-10-13T22:03:44.922Z,72.20
2022-10-13T22:06:18.759Z,72.40
2022-10-13T22:08:49.350Z,72.40
2022-10-13T22:11:17.240Z,72.40
2022-10-13T22:13:44.857Z,72.50
2022-10-13T22:16:13.737Z,72.50
2022-10-13T22:18:41.307Z,72.50
2022-10-13T22:21:11.713Z,72.50
2022-10-13T22:23:40.721Z,72.50
2022-10-13T22:26:08.459Z,72.50
2022-10-13T22:28:37.519Z,72.60
2022-10-13T22:31:05.664Z,72.50
2022-10-13T22:33:34.092Z,72.50
2022-10-13T22:36:04.468Z,72.50
2022-10-13T22:38:31.968Z,72.50
2022-10-13T22:41:03.367Z,72.60
2022-10-13T22:43:30.886Z,72.50
2022-10-13T22:45:58.385Z,72.50
2022-10-13T22:48:26.094Z,72.50
2022-10-13T22:50:53.617Z,72.40
2022-10-13T22:53:21.175Z,72.40
2022-10-13T22:55:48.744Z,72.40
2022-10-13T22:58:17.833Z,72.30
2022-10-13T23:00:45.433Z,72.30
2022-10-13T23:03:13.836Z,72.20
2022-10-13T23:05:41.537Z,72.20
2022-10-13T23:08:09.019Z,72.30
2022-10-13T23:10:36.751Z,72.30
2022-10-13T23:13:04.326Z,72.20
2022-10-13T23:15:33.338Z,72.20
2022-10-13T23:18:00.991Z,72.10
2022-10-13T23:20:28.633Z,72.10
2022-10-13T23:22:56.111Z,72.10
2022-10-13T23:25:23.659Z,72.10
2022-10-13T23:27:51.140Z,72.10
2022-10-13T23:30:18.686Z,72.10
2022-10-13T23:32:47.653Z,72.10
2022-10-13T23:35:15.310Z,72.00
2022-10-13T23:37:42.853Z,72.00
2022-10-13T23:40:11.953Z,72.00
2022-10-13T23:42:39.514Z,72.00
2022-10-13T23:45:07.929Z,72.10
2022-10-13T23:47:35.469Z,72.00
2022-10-13T23:50:04.839Z,72.10
2022-10-13T23:52:32.438Z,72.20
2022-10-13T23:55:00.044Z,72.10
2022-10-13T23:57:28.163Z,72.10
2022-10-13T23:59:55.762Z,72.10
